createdAt,value
2023-01-03T00:01:38.116Z,62.61
2023-01-03T00:04:07.950Z,62.92
2023-01-03T00:06:38.395Z,62.65
2023-01-03T00:09:11.617Z,62.81
2023-01-03T00:11:59.221Z,62.42
2023-01-03T00:14:29.218Z,62.52
2023-01-03T00:17:00.550Z,62.30
2023-01-03T00:19:33.817Z,62.23
2023-01-03T00:22:02.148Z,62.14
2023-01-03T00:24:30.399Z,61.53
2023-01-03T00:26:58.241Z,62.19
2023-01-03T00:29:26.253Z,62.05
2023-01-03T00:31:54.162Z,61.98
2023-01-03T00:34:21.969Z,62.06
2023-01-03T00:36:51.835Z,61.83
2023-01-03T00:39:19.837Z,61.42
2023-01-03T00:41:47.887Z,62.02
2023-01-03T00:44:16.835Z,62.02
2023-01-03T00:46:45.004Z,61.33
2023-01-03T00:49:14.872Z,61.66
2023-01-03T00:51:43.909Z,61.45
2023-01-03T00:54:14.668Z,61.32
2023-01-03T00:56:44.214Z,61.41
2023-01-03T00:59:13.252Z,61.02
2023-01-03T01:01:47.232Z,61.21
2023-01-03T01:04:21.793Z,61.37
2023-01-03T01:06:51.911Z,61.52
2023-01-03T01:09:24.106Z,61.58
2023-01-03T01:11:52.536Z,61.61
2023-01-03T01:14:26.741Z,61.33
2023-01-03T01:16:56.106Z,61.93
2023-01-03T01:19:26.457Z,61.29
2023-01-03T01:21:54.546Z,61.73
2023-01-03T01:24:23.907Z,61.66
2023-01-03T01:26:51.927Z,61.65
2023-01-03T01:29:20.003Z,61.48
2023-01-03T01:31:49.380Z,61.34
2023-01-03T01:34:20.393Z,61.77
2023-01-03T01:36:49.379Z,61.63
2023-01-03T01:39:19.243Z,61.69
2023-01-03T01:42:08.357Z,61.55
2023-01-03T01:44:48.379Z,61.81
2023-01-03T01:47:21.620Z,61.08
2023-01-03T01:49:53.522Z,61.23
2023-01-03T01:52:23.508Z,61.30
2023-01-03T01:54:52.847Z,60.83
2023-01-03T01:57:25.548Z,61.11
2023-01-03T01:59:53.688Z,61.04
2023-01-03T02:02:24.170Z,61.39
2023-01-03T02:04:55.621Z,61.11
2023-01-03T02:07:24.746Z,61.01
2023-01-03T02:09:57.302Z,61.31
2023-01-03T02:12:52.848Z,61.16
2023-01-03T02:15:33.747Z,61.04
2023-01-03T02:18:17.660Z,60.98
2023-01-03T02:21:09.754Z,61.57
2023-01-03T02:24:14.265Z,61.48
2023-01-03T02:26:52.454Z,61.62
2023-01-03T02:30:17.286Z,61.61
2023-01-03T02:32:53.663Z,60.91
2023-01-03T02:35:30.705Z,60.77
2023-01-03T02:38:04.811Z,61.09
2023-01-03T02:40:40.635Z,61.50
2023-01-03T02:43:17.903Z,61.72
2023-01-03T02:46:01.710Z,61.95
2023-01-03T02:48:49.389Z,62.00
2023-01-03T02:51:23.241Z,62.34
2023-01-03T02:53:52.739Z,61.99
2023-01-03T02:56:25.302Z,62.20
2023-01-03T02:58:58.242Z,61.33
2023-01-03T03:01:27.437Z,61.78
2023-01-03T03:03:59.214Z,61.41
2023-01-03T03:06:33.895Z,61.98
2023-01-03T03:09:02.115Z,61.58
2023-01-03T03:11:52.276Z,61.88
2023-01-03T03:14:25.165Z,62.28
2023-01-03T03:16:56.247Z,62.61
2023-01-03T03:19:54.116Z,63.12
2023-01-03T03:22:49.156Z,63.26
2023-01-03T03:25:22.413Z,63.70
2023-01-03T03:28:14.584Z,64.02
2023-01-03T03:30:44.901Z,63.50
2023-01-03T03:33:14.982Z,64.04
2023-01-03T03:35:48.722Z,64.47
2023-01-03T03:38:22.242Z,64.58
2023-01-03T03:41:17.998Z,64.15
2023-01-03T03:44:11.361Z,64.36
2023-01-03T03:46:54.180Z,64.31
2023-01-03T03:49:38.898Z,64.47
2023-01-03T03:52:13.706Z,64.46
2023-01-03T03:54:45.660Z,65.15
2023-01-03T03:57:20.708Z,65.17
2023-01-03T03:59:54.196Z,65.33
2023-01-03T04:02:24.663Z,64.84
2023-01-03T04:04:57.099Z,65.31
2023-01-03T04:07:26.961Z,64.82
2023-01-03T04:09:55.030Z,65.03
2023-01-03T04:12:22.952Z,64.83
2023-01-03T04:14:51.119Z,65.45
2023-01-03T04:17:18.999Z,64.96
2023-01-03T04:19:46.785Z,64.92
2023-01-03T04:22:14.798Z,65.55
2023-01-03T04:24:44.027Z,65.18
2023-01-03T04:27:12.046Z,65.18
2023-01-03T04:29:42.677Z,65.43
2023-01-03T04:32:13.241Z,64.96
2023-01-03T04:34:41.253Z,65.10
2023-01-03T04:37:18.731Z,65.52
2023-01-03T04:39:48.094Z,65.13
2023-01-03T04:42:33.760Z,65.27
2023-01-03T04:45:02.865Z,65.33
2023-01-03T04:47:30.733Z,65.34
2023-01-03T04:49:58.728Z,65.32
2023-01-03T04:52:26.601Z,65.82
2023-01-03T04:54:55.951Z,65.51
2023-01-03T04:57:24.091Z,65.86
2023-01-03T04:59:51.891Z,65.91
2023-01-03T05:02:19.829Z,66.33
2023-01-03T05:04:48.076Z,66.50
2023-01-03T05:07:15.959Z,66.09
2023-01-03T05:09:45.075Z,66.52
2023-01-03T05:12:14.613Z,67.16
2023-01-03T05:14:42.445Z,66.67
2023-01-03T05:17:10.859Z,66.89
2023-01-03T05:19:59.798Z,67.43
2023-01-03T05:22:56.768Z,67.44
2023-01-03T05:25:42.782Z,67.44
2023-01-03T05:28:17.119Z,67.66
2023-01-03T05:30:45.774Z,67.77
2023-01-03T05:33:13.908Z,67.74
2023-01-03T05:35:41.925Z,67.88
2023-01-03T05:38:10.205Z,68.23
2023-01-03T05:40:41.409Z,68.09
2023-01-03T05:43:11.628Z,68.38
2023-01-03T05:45:40.390Z,68.42
2023-01-03T05:48:09.820Z,68.51
2023-01-03T05:50:37.964Z,68.50
2023-01-03T05:53:05.765Z,68.60
2023-01-03T05:55:33.539Z,68.97
2023-01-03T05:58:01.716Z,69.09
2023-01-03T06:00:31.288Z,69.05
2023-01-03T06:02:59.085Z,69.24
2023-01-03T06:05:27.311Z,69.46
2023-01-03T06:07:55.035Z,69.42
2023-01-03T06:10:23.055Z,69.49
2023-01-03T06:12:51.305Z,69.33
2023-01-03T06:15:20.355Z,69.62
2023-01-03T06:18:02.915Z,69.61
2023-01-03T06:20:31.230Z,69.36
2023-01-03T06:22:59.705Z,69.04
2023-01-03T06:25:28.105Z,69.41
2023-01-03T06:27:56.979Z,69.56
2023-01-03T06:30:25.230Z,69.62
2023-01-03T06:32:54.767Z,69.06
2023-01-03T06:35:22.570Z,69.21
2023-01-03T06:37:50.665Z,69.72
2023-01-03T06:40:19.330Z,69.64
2023-01-03T06:42:47.113Z,69.48
2023-01-03T06:45:33.836Z,69.28
2023-01-03T06:48:24.578Z,68.94
2023-01-03T06:51:10.584Z,69.33
2023-01-03T06:53:40.872Z,69.63
2023-01-03T06:56:10.028Z,69.76
2023-01-03T06:58:38.098Z,69.94
2023-01-03T07:01:07.512Z,69.61
2023-01-03T07:03:37.925Z,70.07
2023-01-03T07:06:05.815Z,70.06
2023-01-03T07:08:33.725Z,70.43
2023-01-03T07:11:01.988Z,70.58
2023-01-03T07:13:46.965Z,70.50
2023-01-03T07:16:16.720Z,70.29
2023-01-03T07:18:54.449Z,70.17
2023-01-03T07:21:23.866Z,70.26
2023-01-03T07:23:53.121Z,70.63
2023-01-03T07:26:21.320Z,70.46
2023-01-03T07:28:49.629Z,70.99
2023-01-03T07:31:17.402Z,71.00
2023-01-03T07:33:46.608Z,70.75
2023-01-03T07:36:16.944Z,71.12
2023-01-03T07:38:46.400Z,71.25
2023-01-03T07:41:15.800Z,70.79
2023-01-03T07:43:45.056Z,71.05
2023-01-03T07:46:15.352Z,70.87
2023-01-03T07:48:44.776Z,71.23
2023-01-03T07:51:16.230Z,70.73
2023-01-03T07:53:45.213Z,71.25
2023-01-03T07:56:15.162Z,71.56
2023-01-03T07:58:45.040Z,71.36
2023-01-03T08:01:16.445Z,71.12
2023-01-03T08:03:45.148Z,71.27
2023-01-03T08:06:16.890Z,71.25
2023-01-03T08:08:45.280Z,71.40
2023-01-03T08:11:32.783Z,71.73
2023-01-03T08:14:01.021Z,71.44
2023-01-03T08:16:28.840Z,71.37
2023-01-03T08:18:56.722Z,71.35
2023-01-03T08:21:26.016Z,71.35
2023-01-03T08:23:53.703Z,71.42
2023-01-03T08:26:21.585Z,71.24
2023-01-03T08:28:49.233Z,71.36
2023-01-03T08:31:20.657Z,71.26
2023-01-03T08:33:53.058Z,71.41
2023-01-03T08:36:21.814Z,70.94
2023-01-03T08:38:56.557Z,71.07
2023-01-03T08:41:27.319Z,71.07
2023-01-03T08:43:55.506Z,72.35
2023-01-03T08:46:23.882Z,71.54
2023-01-03T08:48:51.649Z,71.11
2023-01-03T08:51:19.321Z,70.91
2023-01-03T08:53:47.255Z,70.97
2023-01-03T08:56:16.267Z,70.92
2023-01-03T08:58:43.923Z,71.04
2023-01-03T09:01:12.311Z,71.05
2023-01-03T09:03:40.447Z,70.77
2023-01-03T09:06:08.711Z,70.53
2023-01-03T09:08:37.333Z,70.40
2023-01-03T09:11:07.052Z,70.57
2023-01-03T09:13:37.292Z,70.56
2023-01-03T09:16:05.978Z,70.50
2023-01-03T09:18:34.054Z,70.31
2023-01-03T09:21:03.715Z,70.43
2023-01-03T09:23:31.807Z,70.46
2023-01-03T09:25:59.814Z,70.24
2023-01-03T09:28:28.780Z,70.19
2023-01-03T09:30:58.376Z,69.90
2023-01-03T09:33:26.466Z,70.20
2023-01-03T09:35:55.076Z,70.02
2023-01-03T09:38:23.296Z,70.18
2023-01-03T09:40:59.741Z,69.97
2023-01-03T09:43:34.712Z,70.05
2023-01-03T09:46:06.741Z,69.86
2023-01-03T09:48:37.008Z,69.93
2023-01-03T09:51:30.219Z,69.85
2023-01-03T09:54:17.011Z,69.91
2023-01-03T09:57:02.377Z,70.03
2023-01-03T09:59:54.332Z,69.67
2023-01-03T10:03:06.818Z,69.83
2023-01-03T10:05:51.044Z,69.57
2023-01-03T10:08:29.356Z,69.48
2023-01-03T10:11:06.278Z,69.84
2023-01-03T10:13:47.255Z,69.53
2023-01-03T10:16:25.749Z,69.58
2023-01-03T10:19:12.660Z,69.43
2023-01-03T10:21:49.775Z,69.44
2023-01-03T10:24:22.605Z,69.49
2023-01-03T10:26:53.196Z,69.80
2023-01-03T10:29:21.475Z,69.20
2023-01-03T10:32:07.279Z,69.42
2023-01-03T10:34:38.275Z,69.35
2023-01-03T10:37:18.186Z,69.17
2023-01-03T10:39:46.285Z,68.88
2023-01-03T10:42:21.960Z,68.92
2023-01-03T10:45:02.016Z,68.80
2023-01-03T10:47:30.462Z,68.98
2023-01-03T10:50:03.557Z,68.73
2023-01-03T10:52:34.193Z,68.33
2023-01-03T10:55:04.297Z,68.38
2023-01-03T10:57:39.721Z,68.74
2023-01-03T11:00:26.365Z,68.96
2023-01-03T11:02:55.435Z,68.91
2023-01-03T11:05:27.462Z,68.47
2023-01-03T11:07:57.871Z,67.93
2023-01-03T11:10:32.461Z,68.22
2023-01-03T11:13:00.230Z,68.09
2023-01-03T11:15:39.503Z,68.50
2023-01-03T11:18:18.089Z,68.39
2023-01-03T11:20:51.565Z,68.21
2023-01-03T11:23:37.160Z,68.07
2023-01-03T11:26:16.071Z,67.98
2023-01-03T11:28:59.447Z,67.77
2023-01-03T11:31:39.589Z,67.62
2023-01-03T11:34:25.170Z,67.87
2023-01-03T11:37:04.549Z,68.00
2023-01-03T11:39:44.950Z,67.53
2023-01-03T11:42:35.645Z,67.62
2023-01-03T11:45:40.697Z,66.92
2023-01-03T11:48:31.526Z,67.17
2023-01-03T11:51:10.633Z,67.07
2023-01-03T11:53:54.653Z,67.22
2023-01-03T11:56:30.061Z,67.17
2023-01-03T11:59:24.464Z,67.46
2023-01-03T12:02:12.660Z,67.01
2023-01-03T12:04:53.729Z,66.81
2023-01-03T12:10:23.625Z,66.80
2023-01-03T12:13:07.254Z,66.71
2023-01-03T12:15:44.340Z,66.07
2023-01-03T12:18:21.815Z,66.60
2023-01-03T12:20:56.038Z,66.69
2023-01-03T12:23:40.050Z,67.16
2023-01-03T12:26:12.639Z,66.69
2023-01-03T12:28:41.787Z,66.68
2023-01-03T12:31:19.887Z,66.57
2023-01-03T12:33:55.410Z,66.15
2023-01-03T12:36:31.959Z,66.19
2023-01-03T12:39:08.519Z,66.37
2023-01-03T12:41:45.183Z,66.18
2023-01-03T12:44:17.712Z,66.52
2023-01-03T12:46:51.258Z,66.53
2023-01-03T12:49:25.531Z,66.39
2023-01-03T12:51:53.403Z,66.08
2023-01-03T12:54:40.059Z,66.15
2023-01-03T12:57:29.885Z,65.93
2023-01-03T13:00:17.971Z,66.13
2023-01-03T13:02:51.443Z,65.51
2023-01-03T13:05:26.174Z,65.98
2023-01-03T13:08:03.836Z,65.74
2023-01-03T13:10:36.706Z,65.75
2023-01-03T13:13:06.629Z,65.33
2023-01-03T13:15:37.519Z,65.41
2023-01-03T13:18:37.702Z,65.31
2023-01-03T13:21:43.027Z,65.52
2023-01-03T13:24:11.094Z,65.01
2023-01-03T13:26:38.956Z,65.00
2023-01-03T13:29:46.704Z,65.25
2023-01-03T13:32:18.045Z,65.24
2023-01-03T13:34:45.866Z,65.11
2023-01-03T13:37:17.974Z,64.78
2023-01-03T13:40:34.680Z,65.10
2023-01-03T13:43:18.679Z,65.22
2023-01-03T13:45:54.190Z,64.86
2023-01-03T13:48:34.881Z,64.66
2023-01-03T13:51:28.666Z,65.11
2023-01-03T13:54:02.083Z,64.32
2023-01-03T13:56:32.017Z,64.56
2023-01-03T13:59:12.055Z,64.67
2023-01-03T14:01:53.305Z,64.77
2023-01-03T14:04:58.982Z,64.47
2023-01-03T14:07:51.567Z,64.42
2023-01-03T14:10:48.713Z,64.44
2023-01-03T14:13:31.837Z,64.97
2023-01-03T14:16:24.958Z,64.50
2023-01-03T14:19:07.836Z,64.21
2023-01-03T14:21:46.602Z,64.04
2023-01-03T14:24:22.864Z,63.84
2023-01-03T14:26:51.456Z,63.79
2023-01-03T14:29:24.323Z,64.24
2023-01-03T14:31:56.272Z,63.99
2023-01-03T14:34:33.453Z,64.16
2023-01-03T14:37:03.720Z,63.95
2023-01-03T14:42:01.684Z,63.90
2023-01-03T14:44:30.310Z,63.83
2023-01-03T14:47:00.499Z,64.11
2023-01-03T14:49:42.227Z,63.93
2023-01-03T14:52:17.374Z,63.98
2023-01-03T14:54:48.027Z,64.13
2023-01-03T14:57:19.626Z,63.70
2023-01-03T14:59:48.989Z,63.86
2023-01-03T15:02:18.008Z,63.89
2023-01-03T15:04:53.339Z,63.73
2023-01-03T15:07:32.305Z,63.85
2023-01-03T15:10:04.965Z,64.11
2023-01-03T15:12:36.435Z,63.96
2023-01-03T15:15:21.269Z,64.34
2023-01-03T15:17:52.444Z,63.57
2023-01-03T15:20:28.843Z,64.35
2023-01-03T15:22:56.915Z,63.82
2023-01-03T15:25:34.399Z,63.81
2023-01-03T15:28:24.788Z,63.88
2023-01-03T15:30:54.757Z,63.65
2023-01-03T15:33:33.104Z,63.47
2023-01-03T15:36:07.030Z,63.85
2023-01-03T15:38:37.465Z,63.44
2023-01-03T15:41:17.067Z,63.54
2023-01-03T15:43:43.991Z,63.68
2023-01-03T15:46:15.730Z,63.86
2023-01-03T15:48:52.763Z,63.84
2023-01-03T15:51:21.905Z,64.04
2023-01-03T15:53:49.643Z,63.75
2023-01-03T15:56:20.275Z,65.26
2023-01-03T15:58:49.641Z,63.89
2023-01-03T16:01:18.662Z,63.75
2023-01-03T16:03:48.017Z,63.89
2023-01-03T16:06:16.408Z,64.00
2023-01-03T16:08:46.267Z,64.04
2023-01-03T16:16:57.669Z,64.16
2023-01-03T16:19:28.168Z,64.23
2023-01-03T16:24:50.591Z,64.28
2023-01-03T16:27:21.427Z,63.79
2023-01-03T16:29:49.331Z,64.10
2023-01-03T16:32:20.729Z,64.18
2023-01-03T16:34:49.596Z,64.24
2023-01-03T16:37:17.621Z,64.33
2023-01-03T16:39:48.426Z,64.17
2023-01-03T16:42:19.473Z,64.25
2023-01-03T16:44:48.529Z,64.20
2023-01-03T16:47:21.154Z,64.25
2023-01-03T16:49:52.730Z,64.07
2023-01-03T16:52:26.755Z,64.05
2023-01-03T16:54:56.057Z,64.47
2023-01-03T16:57:27.028Z,64.19
2023-01-03T16:59:54.832Z,64.23
2023-01-03T17:02:22.735Z,64.41
2023-01-03T17:04:51.433Z,64.29
2023-01-03T17:07:23.042Z,64.66
2023-01-03T17:09:52.907Z,64.12
2023-01-03T17:12:24.785Z,64.64
2023-01-03T17:14:54.284Z,64.23
2023-01-03T17:17:23.796Z,64.69
2023-01-03T17:20:07.786Z,64.32
2023-01-03T17:22:36.578Z,64.77
2023-01-03T17:25:04.446Z,64.67
2023-01-03T17:27:33.555Z,64.70
2023-01-03T17:30:07.829Z,64.81
2023-01-03T17:32:36.052Z,64.69
2023-01-03T17:35:05.139Z,64.78
2023-01-03T17:37:51.365Z,64.37
2023-01-03T17:40:31.066Z,64.67
2023-01-03T17:43:01.896Z,64.40
2023-01-03T17:45:48.597Z,64.42
2023-01-03T17:48:34.456Z,64.59
2023-01-03T17:51:03.088Z,64.38
2023-01-03T17:53:30.940Z,64.90
2023-01-03T17:55:59.377Z,64.86
2023-01-03T17:58:32.001Z,64.60
2023-01-03T18:01:01.733Z,64.57
2023-01-03T18:03:30.820Z,64.32
2023-01-03T18:06:00.019Z,64.19
2023-01-03T18:08:28.468Z,64.48
2023-01-03T18:10:56.966Z,64.72
2023-01-03T18:13:27.281Z,64.66
2023-01-03T18:15:56.809Z,64.44
2023-01-03T18:18:27.809Z,64.32
2023-01-03T18:20:57.307Z,64.41
2023-01-03T18:23:28.611Z,64.37
2023-01-03T18:25:59.850Z,64.43
2023-01-03T18:28:28.996Z,64.54
2023-01-03T18:30:57.219Z,64.67
2023-01-03T18:33:30.334Z,64.60
2023-01-03T18:35:58.305Z,64.61
2023-01-03T18:38:29.827Z,64.30
2023-01-03T18:41:04.462Z,64.49
2023-01-03T18:43:33.390Z,64.59
2023-01-03T18:46:01.382Z,64.22
2023-01-03T18:48:30.872Z,64.04
2023-01-03T18:50:59.848Z,64.06
2023-01-03T18:53:31.644Z,64.44
2023-01-03T18:56:00.413Z,64.32
2023-01-03T18:58:32.799Z,64.50
2023-01-03T19:01:01.728Z,64.26
2023-01-03T19:03:32.641Z,64.35
2023-01-03T19:08:50.756Z,64.36
2023-01-03T19:11:28.917Z,64.05
2023-01-03T19:13:59.976Z,64.19
2023-01-03T19:16:31.017Z,64.43
2023-01-03T19:19:00.888Z,64.31
2023-01-03T19:21:34.092Z,64.51
2023-01-03T19:24:04.671Z,64.01
2023-01-03T19:26:35.743Z,64.51
2023-01-03T19:29:06.303Z,64.00
2023-01-03T19:31:41.909Z,64.67
2023-01-03T19:34:18.596Z,64.22
2023-01-03T19:36:47.250Z,64.47
2023-01-03T19:39:19.591Z,64.21
2023-01-03T19:42:11.751Z,64.15
2023-01-03T19:44:39.862Z,64.09
2023-01-03T19:47:10.705Z,64.21
2023-01-03T19:49:40.161Z,64.22
2023-01-03T19:52:08.100Z,64.44
2023-01-03T19:54:36.015Z,64.53
2023-01-03T19:57:05.149Z,64.18
2023-01-03T19:59:35.808Z,64.05
2023-01-03T20:02:26.376Z,64.19
2023-01-03T20:04:55.967Z,64.26
2023-01-03T20:07:23.963Z,64.48
2023-01-03T20:09:51.988Z,64.14
2023-01-03T20:12:25.413Z,64.24
2023-01-03T20:14:58.773Z,63.76
2023-01-03T20:17:30.892Z,64.26
2023-01-03T20:20:00.175Z,64.15
2023-01-03T20:23:03.151Z,64.15
2023-01-03T20:25:26.810Z,64.61
2023-01-03T20:27:55.515Z,64.32
2023-01-03T20:30:27.938Z,64.59
2023-01-03T20:32:56.399Z,64.03
2023-01-03T20:38:24.585Z,64.27
2023-01-03T20:40:52.865Z,64.28
2023-01-03T20:43:20.831Z,64.46
2023-01-03T20:45:53.186Z,64.39
2023-01-03T20:48:26.026Z,64.05
2023-01-03T20:50:56.300Z,64.60
2023-01-03T20:53:26.010Z,64.43
2023-01-03T20:55:54.620Z,64.39
2023-01-03T20:58:26.237Z,64.46
2023-01-03T21:01:02.057Z,64.99
2023-01-03T21:03:33.526Z,64.38
2023-01-03T21:06:03.496Z,64.69
2023-01-03T21:08:48.698Z,64.17
2023-01-03T21:11:16.591Z,64.33
2023-01-03T21:13:44.417Z,64.58
2023-01-03T21:16:22.001Z,64.46
2023-01-03T21:18:49.801Z,65.24
2023-01-03T21:21:21.164Z,65.33
2023-01-03T21:23:49.365Z,64.63
2023-01-03T21:26:17.213Z,64.40
2023-01-03T21:28:45.381Z,64.89
2023-01-03T21:31:19.460Z,64.71
2023-01-03T21:33:47.818Z,64.54
2023-01-03T21:36:23.249Z,64.44
2023-01-03T21:38:55.366Z,64.49
2023-01-03T21:41:27.003Z,64.48
2023-01-03T21:43:58.067Z,64.70
2023-01-03T21:46:27.806Z,64.46
2023-01-03T21:48:56.236Z,64.64
2023-01-03T21:51:35.379Z,64.83
2023-01-03T21:54:08.589Z,65.12
2023-01-03T21:56:44.945Z,65.67
2023-01-03T21:59:13.814Z,65.29
2023-01-03T22:01:55.732Z,65.23
2023-01-03T22:04:24.202Z,65.33
2023-01-03T22:06:52.335Z,65.63
2023-01-03T22:09:39.811Z,66.09
2023-01-03T22:12:08.146Z,65.71
2023-01-03T22:14:36.170Z,65.50
2023-01-03T22:17:04.745Z,65.75
2023-01-03T22:19:32.632Z,66.00
2023-01-03T22:22:00.476Z,65.75
2023-01-03T22:24:32.318Z,66.04
2023-01-03T22:27:00.365Z,66.08
2023-01-03T22:29:28.248Z,66.28
2023-01-03T22:31:56.515Z,66.83
2023-01-03T22:34:24.641Z,67.09
2023-01-03T22:36:52.438Z,66.97
2023-01-03T22:39:20.872Z,67.13
2023-01-03T22:41:50.074Z,67.23
2023-01-03T22:44:18.018Z,67.79
2023-01-03T22:46:46.392Z,67.81
2023-01-03T22:49:14.172Z,68.29
2023-01-03T22:51:42.229Z,68.22
2023-01-03T22:54:10.297Z,67.98
2023-01-03T22:56:40.544Z,68.37
2023-01-03T22:59:09.841Z,68.68
2023-01-03T23:01:38.059Z,68.88
2023-01-03T23:04:06.969Z,68.53
2023-01-03T23:06:37.179Z,69.02
2023-01-03T23:09:05.748Z,68.78
2023-01-03T23:11:52.220Z,68.94
2023-01-03T23:14:23.272Z,69.15
2023-01-03T23:16:52.223Z,69.27
2023-01-03T23:19:21.871Z,69.56
2023-01-03T23:21:49.943Z,70.00
2023-01-03T23:24:20.191Z,69.43
2023-01-03T23:26:48.131Z,69.34
2023-01-03T23:29:16.276Z,69.63
2023-01-03T23:31:46.048Z,70.27
2023-01-03T23:34:14.511Z,69.76
2023-01-03T23:36:43.823Z,69.94
2023-01-03T23:39:14.256Z,70.07
2023-01-03T23:41:42.317Z,70.38
2023-01-03T23:44:10.688Z,70.41
2023-01-03T23:46:38.913Z,70.22
2023-01-03T23:49:08.389Z,70.14
2023-01-03T23:51:37.482Z,71.05
2023-01-03T23:54:05.803Z,71.72
2023-01-03T23:56:33.814Z,71.34
2023-01-03T23:59:01.862Z,70.71
